sensor_id;sensor_type;location;lat;lon;timestamp;P1;durP1;ratioP1;P2;durP2;ratioP2
71773;SDS011;59607;52.130;5.430;2024-02-26T00:00:43;2.00;;;1.55;;
71773;SDS011;59607;52.130;5.430;2024-02-26T00:03:15;2.72;;;1.60;;
71773;SDS011;59607;52.130;5.430;2024-02-26T00:05:42;1.60;;;1.37;;
71773;SDS011;59607;52.130;5.430;2024-02-26T00:08:09;1.40;;;1.30;;
71773;SDS011;59607;52.130;5.430;2024-02-26T00:10:41;2.13;;;1.67;;
71773;SDS011;59607;52.130;5.430;2024-02-26T00:13:10;2.15;;;1.40;;
71773;SDS011;59607;52.130;5.430;2024-02-26T00:15:44;3.63;;;1.60;;
71773;SDS011;59607;52.130;5.430;2024-02-26T00:18:10;1.67;;;1.47;;
71773;SDS011;59607;52.130;5.430;2024-02-26T00:20:47;1.92;;;1.73;;
71773;SDS011;59607;52.130;5.430;2024-02-26T00:23:23;2.50;;;1.65;;
71773;SDS011;59607;52.130;5.430;2024-02-26T00:25:53;2.20;;;1.67;;
71773;SDS011;59607;52.130;5.430;2024-02-26T00:28:26;2.08;;;1.63;;
71773;SDS011;59607;52.130;5.430;2024-02-26T00:30:57;1.93;;;1.70;;
71773;SDS011;59607;52.130;5.430;2024-02-26T00:33:24;2.85;;;2.10;;
71773;SDS011;59607;52.130;5.430;2024-02-26T00:35:58;3.05;;;1.80;;
71773;SDS011;59607;52.130;5.430;2024-02-26T00:38:24;1.80;;;1.70;;
71773;SDS011;59607;52.130;5.430;2024-02-26T00:40:57;2.00;;;1.80;;
71773;SDS011;59607;52.130;5.430;2024-02-26T00:43:23;4.03;;;2.03;;
71773;SDS011;59607;52.130;5.430;2024-02-26T00:45:53;2.28;;;1.80;;
71773;SDS011;59607;52.130;5.430;2024-02-26T00:48:22;2.00;;;1.80;;
71773;SDS011;59607;52.130;5.430;2024-02-26T00:50:55;2.13;;;1.85;;
71773;SDS011;59607;52.130;5.430;2024-02-26T00:53:32;2.10;;;1.73;;
71773;SDS011;59607;52.130;5.430;2024-02-26T00:56:13;1.97;;;1.77;;
71773;SDS011;59607;52.130;5.430;2024-02-26T00:58:47;2.45;;;1.95;;
71773;SDS011;59607;52.130;5.430;2024-02-26T01:01:13;2.85;;;2.17;;
71773;SDS011;59607;52.130;5.430;2024-02-26T01:03:40;2.38;;;1.92;;
71773;SDS011;59607;52.130;5.430;2024-02-26T01:06:13;2.47;;;2.28;;
71773;SDS011;59607;52.130;5.430;2024-02-26T01:08:39;2.50;;;2.30;;
71773;SDS011;59607;52.130;5.430;2024-02-26T01:11:06;3.90;;;2.40;;
71773;SDS011;59607;52.130;5.430;2024-02-26T01:13:36;4.10;;;2.20;;
71773;SDS011;59607;52.130;5.430;2024-02-26T01:16:03;2.63;;;2.42;;
71773;SDS011;59607;52.130;5.430;2024-02-26T01:18:35;2.40;;;2.20;;
71773;SDS011;59607;52.130;5.430;2024-02-26T01:21:04;3.33;;;2.23;;
71773;SDS011;59607;52.130;5.430;2024-02-26T01:23:35;2.63;;;2.17;;
71773;SDS011;59607;52.130;5.430;2024-02-26T01:26:03;2.30;;;2.08;;
71773;SDS011;59607;52.130;5.430;2024-02-26T01:28:30;2.50;;;2.30;;
71773;SDS011;59607;52.130;5.430;2024-02-26T01:30:59;2.67;;;2.05;;
71773;SDS011;59607;52.130;5.430;2024-02-26T01:33:32;2.10;;;1.90;;
71773;SDS011;59607;52.130;5.430;2024-02-26T01:35:58;3.00;;;2.20;;
71773;SDS011;59607;52.130;5.430;2024-02-26T01:38:32;5.07;;;2.17;;
71773;SDS011;59607;52.130;5.430;2024-02-26T01:41:02;2.65;;;2.10;;
71773;SDS011;59607;52.130;5.430;2024-02-26T01:43:29;3.47;;;2.30;;
71773;SDS011;59607;52.130;5.430;2024-02-26T01:46:03;3.03;;;2.20;;
71773;SDS011;59607;52.130;5.430;2024-02-26T01:48:38;2.35;;;1.98;;
71773;SDS011;59607;52.130;5.430;2024-02-26T01:51:05;2.85;;;2.10;;
71773;SDS011;59607;52.130;5.430;2024-02-26T01:53:35;3.47;;;2.53;;
71773;SDS011;59607;52.130;5.430;2024-02-26T01:56:09;2.85;;;2.65;;
71773;SDS011;59607;52.130;5.430;2024-02-26T01:58:37;2.50;;;2.00;;
71773;SDS011;59607;52.130;5.430;2024-02-26T02:01:04;3.08;;;2.67;;
71773;SDS011;59607;52.130;5.430;2024-02-26T02:03:31;3.22;;;2.42;;
71773;SDS011;59607;52.130;5.430;2024-02-26T02:06:08;2.25;;;2.05;;
71773;SDS011;59607;52.130;5.430;2024-02-26T02:08:37;2.50;;;2.30;;
71773;SDS011;59607;52.130;5.430;2024-02-26T02:11:09;4.50;;;2.40;;
71773;SDS011;59607;52.130;5.430;2024-02-26T02:13:37;4.53;;;2.08;;
71773;SDS011;59607;52.130;5.430;2024-02-26T02:16:13;2.92;;;2.58;;
71773;SDS011;59607;52.130;5.430;2024-02-26T02:18:40;2.67;;;2.28;;
71773;SDS011;59607;52.130;5.430;2024-02-26T02:21:15;3.22;;;2.40;;
71773;SDS011;59607;52.130;5.430;2024-02-26T02:23:42;3.57;;;2.40;;
71773;SDS011;59607;52.130;5.430;2024-02-26T02:26:14;2.90;;;2.60;;
71773;SDS011;59607;52.130;5.430;2024-02-26T02:28:45;6.35;;;2.17;;
71773;SDS011;59607;52.130;5.430;2024-02-26T02:31:15;2.42;;;1.98;;
71773;SDS011;59607;52.130;5.430;2024-02-26T02:33:42;4.60;;;2.20;;
71773;SDS011;59607;52.130;5.430;2024-02-26T02:36:09;3.77;;;2.40;;
71773;SDS011;59607;52.130;5.430;2024-02-26T02:38:47;4.72;;;2.85;;
71773;SDS011;59607;52.130;5.430;2024-02-26T02:41:16;4.13;;;2.63;;
71773;SDS011;59607;52.130;5.430;2024-02-26T02:43:48;2.42;;;2.20;;
71773;SDS011;59607;52.130;5.430;2024-02-26T02:46:15;2.47;;;2.28;;
71773;SDS011;59607;52.130;5.430;2024-02-26T02:48:41;5.63;;;2.30;;
71773;SDS011;59607;52.130;5.430;2024-02-26T02:51:22;3.08;;;2.45;;
71773;SDS011;59607;52.130;5.430;2024-02-26T02:53:55;2.80;;;2.50;;
71773;SDS011;59607;52.130;5.430;2024-02-26T02:56:22;3.28;;;2.30;;
71773;SDS011;59607;52.130;5.430;2024-02-26T02:58:57;2.63;;;2.22;;
71773;SDS011;59607;52.130;5.430;2024-02-26T03:01:23;4.27;;;2.50;;
71773;SDS011;59607;52.130;5.430;2024-02-26T03:03:50;2.85;;;2.40;;
71773;SDS011;59607;52.130;5.430;2024-02-26T03:06:23;2.45;;;1.77;;
71773;SDS011;59607;52.130;5.430;2024-02-26T03:08:55;4.65;;;2.55;;
71773;SDS011;59607;52.130;5.430;2024-02-26T03:11:25;3.10;;;2.50;;
71773;SDS011;59607;52.130;5.430;2024-02-26T03:13:52;2.83;;;2.40;;
71773;SDS011;59607;52.130;5.430;2024-02-26T03:16:29;3.08;;;2.75;;
71773;SDS011;59607;52.130;5.430;2024-02-26T03:18:55;3.05;;;2.75;;
71773;SDS011;59607;52.130;5.430;2024-02-26T03:21:23;2.92;;;2.63;;
71773;SDS011;59607;52.130;5.430;2024-02-26T03:23:51;3.53;;;3.00;;
71773;SDS011;59607;52.130;5.430;2024-02-26T03:26:18;3.70;;;2.90;;
71773;SDS011;59607;52.130;5.430;2024-02-26T03:28:44;3.88;;;2.97;;
71773;SDS011;59607;52.130;5.430;2024-02-26T03:31:24;3.38;;;3.00;;
71773;SDS011;59607;52.130;5.430;2024-02-26T03:34:05;2.97;;;2.78;;
71773;SDS011;59607;52.130;5.430;2024-02-26T03:36:32;3.90;;;3.15;;
71773;SDS011;59607;52.130;5.430;2024-02-26T03:39:08;3.53;;;3.00;;
71773;SDS011;59607;52.130;5.430;2024-02-26T03:41:38;4.18;;;3.30;;
71773;SDS011;59607;52.130;5.430;2024-02-26T03:44:08;4.10;;;3.22;;
71773;SDS011;59607;52.130;5.430;2024-02-26T03:46:39;3.58;;;3.22;;
71773;SDS011;59607;52.130;5.430;2024-02-26T03:49:08;3.72;;;3.30;;
71773;SDS011;59607;52.130;5.430;2024-02-26T03:51:35;3.97;;;3.27;;
71773;SDS011;59607;52.130;5.430;2024-02-26T03:54:04;4.50;;;3.40;;
71773;SDS011;59607;52.130;5.430;2024-02-26T03:56:31;3.88;;;3.47;;
71773;SDS011;59607;52.130;5.430;2024-02-26T03:58:57;4.63;;;3.45;;
71773;SDS011;59607;52.130;5.430;2024-02-26T04:01:34;4.13;;;3.20;;
71773;SDS011;59607;52.130;5.430;2024-02-26T04:04:00;4.73;;;3.50;;
71773;SDS011;59607;52.130;5.430;2024-02-26T04:06:27;4.93;;;3.50;;
71773;SDS011;59607;52.130;5.430;2024-02-26T04:08:57;4.47;;;3.83;;
71773;SDS011;59607;52.130;5.430;2024-02-26T04:11:24;3.50;;;2.88;;
71773;SDS011;59607;52.130;5.430;2024-02-26T04:13:50;3.58;;;3.28;;
71773;SDS011;59607;52.130;5.430;2024-02-26T04:16:22;3.80;;;3.40;;
71773;SDS011;59607;52.130;5.430;2024-02-26T04:18:49;4.78;;;3.75;;
71773;SDS011;59607;52.130;5.430;2024-02-26T04:21:16;3.33;;;2.90;;
71773;SDS011;59607;52.130;5.430;2024-02-26T04:23:50;5.15;;;3.40;;
71773;SDS011;59607;52.130;5.430;2024-02-26T04:26:16;5.45;;;3.53;;
71773;SDS011;59607;52.130;5.430;2024-02-26T04:28:45;5.20;;;4.10;;
71773;SDS011;59607;52.130;5.430;2024-02-26T04:31:14;3.50;;;3.20;;
71773;SDS011;59607;52.130;5.430;2024-02-26T04:33:41;5.43;;;3.15;;
71773;SDS011;59607;52.130;5.430;2024-02-26T04:36:25;4.75;;;3.45;;
71773;SDS011;59607;52.130;5.430;2024-02-26T04:39:00;3.10;;;2.70;;
71773;SDS011;59607;52.130;5.430;2024-02-26T04:41:33;4.03;;;2.73;;
71773;SDS011;59607;52.130;5.430;2024-02-26T04:44:01;4.00;;;3.15;;
71773;SDS011;59607;52.130;5.430;2024-02-26T04:46:34;3.65;;;3.00;;
71773;SDS011;59607;52.130;5.430;2024-02-26T04:49:00;4.75;;;3.42;;
71773;SDS011;59607;52.130;5.430;2024-02-26T04:51:27;4.97;;;3.53;;
71773;SDS011;59607;52.130;5.430;2024-02-26T04:53:54;3.80;;;3.33;;
71773;SDS011;59607;52.130;5.430;2024-02-26T04:56:26;4.32;;;3.53;;
71773;SDS011;59607;52.130;5.430;2024-02-26T04:58:52;3.60;;;3.25;;
71773;SDS011;59607;52.130;5.430;2024-02-26T05:01:19;3.78;;;3.33;;
71773;SDS011;59607;52.130;5.430;2024-02-26T05:04:02;4.28;;;3.30;;
71773;SDS011;59607;52.130;5.430;2024-02-26T05:06:33;3.50;;;2.97;;
71773;SDS011;59607;52.130;5.430;2024-02-26T05:09:01;3.45;;;3.15;;
71773;SDS011;59607;52.130;5.430;2024-02-26T05:11:34;3.65;;;2.75;;
71773;SDS011;59607;52.130;5.430;2024-02-26T05:14:01;5.97;;;3.38;;
71773;SDS011;59607;52.130;5.430;2024-02-26T05:16:34;3.92;;;2.90;;
71773;SDS011;59607;52.130;5.430;2024-02-26T05:19:04;3.63;;;3.13;;
71773;SDS011;59607;52.130;5.430;2024-02-26T05:21:33;4.75;;;3.17;;
71773;SDS011;59607;52.130;5.430;2024-02-26T05:24:03;4.35;;;3.90;;
71773;SDS011;59607;52.130;5.430;2024-02-26T05:26:30;5.65;;;2.97;;
71773;SDS011;59607;52.130;5.430;2024-02-26T05:29:00;4.07;;;3.55;;
71773;SDS011;59607;52.130;5.430;2024-02-26T05:31:34;4.77;;;3.30;;
71773;SDS011;59607;52.130;5.430;2024-02-26T05:34:03;5.18;;;4.03;;
71773;SDS011;59607;52.130;5.430;2024-02-26T05:36:33;5.60;;;3.60;;
71773;SDS011;59607;52.130;5.430;2024-02-26T05:39:03;3.78;;;3.38;;
71773;SDS011;59607;52.130;5.430;2024-02-26T05:41:43;5.18;;;3.55;;
71773;SDS011;59607;52.130;5.430;2024-02-26T05:44:19;4.53;;;4.10;;
71773;SDS011;59607;52.130;5.430;2024-02-26T05:46:56;5.30;;;3.80;;
71773;SDS011;59607;52.130;5.430;2024-02-26T05:49:22;5.18;;;3.28;;
71773;SDS011;59607;52.130;5.430;2024-02-26T05:51:49;4.40;;;4.00;;
71773;SDS011;59607;52.130;5.430;2024-02-26T05:54:21;5.32;;;4.53;;
71773;SDS011;59607;52.130;5.430;2024-02-26T05:56:48;5.67;;;4.30;;
71773;SDS011;59607;52.130;5.430;2024-02-26T05:59:17;6.32;;;4.68;;
71773;SDS011;59607;52.130;5.430;2024-02-26T06:01:43;4.78;;;3.53;;
71773;SDS011;59607;52.130;5.430;2024-02-26T06:04:10;4.68;;;4.15;;
71773;SDS011;59607;52.130;5.430;2024-02-26T06:06:41;7.07;;;4.85;;
71773;SDS011;59607;52.130;5.430;2024-02-26T06:09:11;4.47;;;4.07;;
71773;SDS011;59607;52.130;5.430;2024-02-26T06:11:38;5.28;;;3.78;;
71773;SDS011;59607;52.130;5.430;2024-02-26T06:14:10;4.63;;;3.95;;
71773;SDS011;59607;52.130;5.430;2024-02-26T06:16:39;6.07;;;4.03;;
71773;SDS011;59607;52.130;5.430;2024-02-26T06:19:09;5.80;;;4.75;;
71773;SDS011;59607;52.130;5.430;2024-02-26T06:21:45;5.67;;;4.13;;
71773;SDS011;59607;52.130;5.430;2024-02-26T06:24:17;5.18;;;3.72;;
71773;SDS011;59607;52.130;5.430;2024-02-26T06:26:44;5.53;;;3.90;;
71773;SDS011;59607;52.130;5.430;2024-02-26T06:29:10;8.50;;;4.22;;
71773;SDS011;59607;52.130;5.430;2024-02-26T06:31:42;7.88;;;4.50;;
71773;SDS011;59607;52.130;5.430;2024-02-26T06:34:09;7.23;;;4.97;;
71773;SDS011;59607;52.130;5.430;2024-02-26T06:36:38;6.78;;;4.18;;
71773;SDS011;59607;52.130;5.430;2024-02-26T06:39:07;6.97;;;4.93;;
71773;SDS011;59607;52.130;5.430;2024-02-26T06:41:37;6.60;;;4.55;;
71773;SDS011;59607;52.130;5.430;2024-02-26T06:44:08;7.65;;;5.10;;
71773;SDS011;59607;52.130;5.430;2024-02-26T06:46:34;10.47;;;5.37;;
71773;SDS011;59607;52.130;5.430;2024-02-26T06:49:01;6.72;;;4.60;;
71773;SDS011;59607;52.130;5.430;2024-02-26T06:51:39;7.95;;;5.00;;
71773;SDS011;59607;52.130;5.430;2024-02-26T06:54:23;7.82;;;5.50;;
71773;SDS011;59607;52.130;5.430;2024-02-26T06:57:03;8.02;;;4.93;;
71773;SDS011;59607;52.130;5.430;2024-02-26T06:59:33;6.70;;;5.17;;
71773;SDS011;59607;52.130;5.430;2024-02-26T07:02:02;9.90;;;6.35;;
71773;SDS011;59607;52.130;5.430;2024-02-26T07:04:28;8.13;;;5.30;;
71773;SDS011;59607;52.130;5.430;2024-02-26T07:07:03;7.85;;;4.95;;
71773;SDS011;59607;52.130;5.430;2024-02-26T07:09:31;7.88;;;5.40;;
71773;SDS011;59607;52.130;5.430;2024-02-26T07:12:11;8.27;;;6.07;;
71773;SDS011;59607;52.130;5.430;2024-02-26T07:14:38;9.32;;;5.68;;
71773;SDS011;59607;52.130;5.430;2024-02-26T07:17:11;9.25;;;6.10;;
71773;SDS011;59607;52.130;5.430;2024-02-26T07:19:38;8.75;;;5.78;;
71773;SDS011;59607;52.130;5.430;2024-02-26T07:22:11;10.02;;;7.20;;
71773;SDS011;59607;52.130;5.430;2024-02-26T07:24:38;9.07;;;6.27;;
71773;SDS011;59607;52.130;5.430;2024-02-26T07:27:05;10.02;;;6.70;;
71773;SDS011;59607;52.130;5.430;2024-02-26T07:29:34;9.13;;;6.43;;
71773;SDS011;59607;52.130;5.430;2024-02-26T07:32:01;9.93;;;6.40;;
71773;SDS011;59607;52.130;5.430;2024-02-26T07:34:27;12.25;;;7.10;;
71773;SDS011;59607;52.130;5.430;2024-02-26T07:37:00;12.73;;;7.50;;
71773;SDS011;59607;52.130;5.430;2024-02-26T07:39:27;12.13;;;8.13;;
71773;SDS011;59607;52.130;5.430;2024-02-26T07:42:02;17.50;;;8.52;;
71773;SDS011;59607;52.130;5.430;2024-02-26T07:44:29;15.60;;;8.52;;
71773;SDS011;59607;52.130;5.430;2024-02-26T07:46:58;13.10;;;7.85;;
71773;SDS011;59607;52.130;5.430;2024-02-26T07:49:28;15.07;;;9.13;;
71773;SDS011;59607;52.130;5.430;2024-02-26T07:51:55;15.57;;;8.40;;
71773;SDS011;59607;52.130;5.430;2024-02-26T07:54:41;13.98;;;8.45;;
71773;SDS011;59607;52.130;5.430;2024-02-26T07:57:14;14.93;;;8.00;;
71773;SDS011;59607;52.130;5.430;2024-02-26T07:59:52;13.80;;;8.75;;
71773;SDS011;59607;52.130;5.430;2024-02-26T08:02:18;11.13;;;7.93;;
71773;SDS011;59607;52.130;5.430;2024-02-26T08:04:51;14.30;;;8.63;;
71773;SDS011;59607;52.130;5.430;2024-02-26T08:07:20;15.00;;;9.02;;
71773;SDS011;59607;52.130;5.430;2024-02-26T08:09:47;11.02;;;7.40;;
71773;SDS011;59607;52.130;5.430;2024-02-26T08:12:28;13.07;;;7.15;;
71773;SDS011;59607;52.130;5.430;2024-02-26T08:14:54;12.77;;;8.10;;
71773;SDS011;59607;52.130;5.430;2024-02-26T08:17:21;11.80;;;7.72;;
71773;SDS011;59607;52.130;5.430;2024-02-26T08:19:48;10.55;;;7.03;;
71773;SDS011;59607;52.130;5.430;2024-02-26T08:22:15;12.18;;;8.15;;
71773;SDS011;59607;52.130;5.430;2024-02-26T08:24:49;11.25;;;7.32;;
71773;SDS011;59607;52.130;5.430;2024-02-26T08:27:19;11.87;;;7.83;;
71773;SDS011;59607;52.130;5.430;2024-02-26T08:29:53;11.95;;;6.88;;
71773;SDS011;59607;52.130;5.430;2024-02-26T08:32:19;10.88;;;6.78;;
71773;SDS011;59607;52.130;5.430;2024-02-26T08:34:53;6.60;;;5.68;;
71773;SDS011;59607;52.130;5.430;2024-02-26T08:37:20;6.82;;;5.60;;
71773;SDS011;59607;52.130;5.430;2024-02-26T08:39:46;9.23;;;6.27;;
71773;SDS011;59607;52.130;5.430;2024-02-26T08:42:16;6.80;;;4.93;;
71773;SDS011;59607;52.130;5.430;2024-02-26T08:44:42;5.00;;;4.55;;
71773;SDS011;59607;52.130;5.430;2024-02-26T08:47:09;7.32;;;5.28;;
71773;SDS011;59607;52.130;5.430;2024-02-26T08:49:45;5.80;;;4.93;;
71773;SDS011;59607;52.130;5.430;2024-02-26T08:52:11;5.57;;;4.67;;
71773;SDS011;59607;52.130;5.430;2024-02-26T08:54:44;6.15;;;5.28;;
71773;SDS011;59607;52.130;5.430;2024-02-26T08:57:11;4.40;;;3.95;;
71773;SDS011;59607;52.130;5.430;2024-02-26T08:59:38;5.13;;;4.35;;
71773;SDS011;59607;52.130;5.430;2024-02-26T09:02:10;5.75;;;4.70;;
71773;SDS011;59607;52.130;5.430;2024-02-26T09:04:36;5.87;;;4.40;;
71773;SDS011;59607;52.130;5.430;2024-02-26T09:07:04;6.93;;;5.03;;
71773;SDS011;59607;52.130;5.430;2024-02-26T09:09:32;5.25;;;4.75;;
71773;SDS011;59607;52.130;5.430;2024-02-26T09:11:58;4.68;;;4.13;;
71773;SDS011;59607;52.130;5.430;2024-02-26T09:14:27;4.68;;;3.88;;
71773;SDS011;59607;52.130;5.430;2024-02-26T09:16:57;5.00;;;3.93;;
71773;SDS011;59607;52.130;5.430;2024-02-26T09:19:24;6.10;;;4.40;;
71773;SDS011;59607;52.130;5.430;2024-02-26T09:22:00;11.52;;;3.33;;
71773;SDS011;59607;52.130;5.430;2024-02-26T09:24:27;4.93;;;4.15;;
71773;SDS011;59607;52.130;5.430;2024-02-26T09:26:56;7.20;;;4.35;;
71773;SDS011;59607;52.130;5.430;2024-02-26T09:29:27;5.33;;;3.87;;
71773;SDS011;59607;52.130;5.430;2024-02-26T09:31:55;4.90;;;3.97;;
71773;SDS011;59607;52.130;5.430;2024-02-26T09:34:36;5.72;;;2.42;;
71773;SDS011;59607;52.130;5.430;2024-02-26T09:37:10;6.53;;;4.35;;
71773;SDS011;59607;52.130;5.430;2024-02-26T09:39:50;3.67;;;3.05;;
71773;SDS011;59607;52.130;5.430;2024-02-26T09:42:17;5.33;;;3.70;;
71773;SDS011;59607;52.130;5.430;2024-02-26T09:44:49;6.13;;;3.80;;
71773;SDS011;59607;52.130;5.430;2024-02-26T09:47:22;3.97;;;3.10;;
71773;SDS011;59607;52.130;5.430;2024-02-26T09:50:00;3.92;;;3.30;;
71773;SDS011;59607;52.130;5.430;2024-02-26T09:52:29;5.35;;;3.63;;
71773;SDS011;59607;52.130;5.430;2024-02-26T09:54:59;3.10;;;2.57;;
71773;SDS011;59607;52.130;5.430;2024-02-26T09:57:25;4.88;;;3.60;;
71773;SDS011;59607;52.130;5.430;2024-02-26T09:59:53;4.57;;;3.03;;
71773;SDS011;59607;52.130;5.430;2024-02-26T10:02:30;4.47;;;3.25;;
71773;SDS011;59607;52.130;5.430;2024-02-26T10:04:57;5.93;;;2.92;;
71773;SDS011;59607;52.130;5.430;2024-02-26T10:07:30;4.13;;;3.20;;
71773;SDS011;59607;52.130;5.430;2024-02-26T10:09:57;3.58;;;2.58;;
71773;SDS011;59607;52.130;5.430;2024-02-26T10:12:30;3.38;;;2.20;;
71773;SDS011;59607;52.130;5.430;2024-02-26T10:14:57;3.92;;;2.78;;
71773;SDS011;59607;52.130;5.430;2024-02-26T10:17:31;2.83;;;2.20;;
71773;SDS011;59607;52.130;5.430;2024-02-26T10:20:10;5.60;;;2.87;;
71773;SDS011;59607;52.130;5.430;2024-02-26T10:22:44;3.80;;;2.78;;
71773;SDS011;59607;52.130;5.430;2024-02-26T10:25:21;3.42;;;2.63;;
71773;SDS011;59607;52.130;5.430;2024-02-26T10:27:47;3.92;;;3.10;;
71773;SDS011;59607;52.130;5.430;2024-02-26T10:30:20;4.38;;;3.10;;
71773;SDS011;59607;52.130;5.430;2024-02-26T10:32:49;3.17;;;2.43;;
71773;SDS011;59607;52.130;5.430;2024-02-26T10:35:19;4.68;;;3.35;;
71773;SDS011;59607;52.130;5.430;2024-02-26T10:37:50;3.45;;;2.53;;
71773;SDS011;59607;52.130;5.430;2024-02-26T10:40:25;3.80;;;3.40;;
71773;SDS011;59607;52.130;5.430;2024-02-26T10:42:51;3.95;;;2.50;;
71773;SDS011;59607;52.130;5.430;2024-02-26T10:45:20;3.07;;;2.50;;
71773;SDS011;59607;52.130;5.430;2024-02-26T10:47:50;4.10;;;3.28;;
71773;SDS011;59607;52.130;5.430;2024-02-26T10:50:17;5.10;;;2.42;;
71773;SDS011;59607;52.130;5.430;2024-02-26T10:52:54;3.85;;;3.00;;
71773;SDS011;59607;52.130;5.430;2024-02-26T10:55:21;3.58;;;2.42;;
71773;SDS011;59607;52.130;5.430;2024-02-26T10:58:05;3.23;;;2.13;;
71773;SDS011;59607;52.130;5.430;2024-02-26T11:00:39;5.15;;;2.40;;
71773;SDS011;59607;52.130;5.430;2024-02-26T11:03:07;3.33;;;2.60;;
71773;SDS011;59607;52.130;5.430;2024-02-26T11:05:52;2.88;;;2.40;;
71773;SDS011;59607;52.130;5.430;2024-02-26T11:08:27;2.58;;;2.13;;
71773;SDS011;59607;52.130;5.430;2024-02-26T11:10:54;3.60;;;2.53;;
71773;SDS011;59607;52.130;5.430;2024-02-26T11:13:27;4.68;;;2.60;;
71773;SDS011;59607;52.130;5.430;2024-02-26T11:15:59;3.95;;;2.80;;
71773;SDS011;59607;52.130;5.430;2024-02-26T11:18:33;3.47;;;3.05;;
71773;SDS011;59607;52.130;5.430;2024-02-26T11:21:05;3.13;;;2.70;;
71773;SDS011;59607;52.130;5.430;2024-02-26T11:23:35;3.43;;;2.77;;
71773;SDS011;59607;52.130;5.430;2024-02-26T11:26:03;3.88;;;3.08;;
71773;SDS011;59607;52.130;5.430;2024-02-26T11:28:41;2.83;;;2.42;;
71773;SDS011;59607;52.130;5.430;2024-02-26T11:31:16;2.70;;;2.42;;
71773;SDS011;59607;52.130;5.430;2024-02-26T11:33:52;3.33;;;2.88;;
71773;SDS011;59607;52.130;5.430;2024-02-26T11:36:24;4.20;;;3.13;;
71773;SDS011;59607;52.130;5.430;2024-02-26T11:38:56;3.50;;;2.90;;
71773;SDS011;59607;52.130;5.430;2024-02-26T11:41:25;3.03;;;2.40;;
71773;SDS011;59607;52.130;5.430;2024-02-26T11:43:57;3.33;;;2.97;;
71773;SDS011;59607;52.130;5.430;2024-02-26T11:46:31;4.40;;;2.83;;
71773;SDS011;59607;52.130;5.430;2024-02-26T11:49:02;3.23;;;2.93;;
71773;SDS011;59607;52.130;5.430;2024-02-26T11:51:52;3.20;;;2.67;;
71773;SDS011;59607;52.130;5.430;2024-02-26T11:57:40;3.00;;;2.28;;
71773;SDS011;59607;52.130;5.430;2024-02-26T12:00:13;3.05;;;2.75;;
71773;SDS011;59607;52.130;5.430;2024-02-26T12:02:50;3.20;;;2.90;;
71773;SDS011;59607;52.130;5.430;2024-02-26T12:05:31;3.30;;;3.00;;
71773;SDS011;59607;52.130;5.430;2024-02-26T12:08:04;5.32;;;3.22;;
71773;SDS011;59607;52.130;5.430;2024-02-26T12:10:38;3.75;;;3.28;;
71773;SDS011;59607;52.130;5.430;2024-02-26T12:13:15;3.50;;;2.88;;
71773;SDS011;59607;52.130;5.430;2024-02-26T12:15:56;3.70;;;3.10;;
71773;SDS011;59607;52.130;5.430;2024-02-26T12:18:26;3.17;;;2.88;;
71773;SDS011;59607;52.130;5.430;2024-02-26T12:21:00;2.95;;;2.45;;
71773;SDS011;59607;52.130;5.430;2024-02-26T12:23:31;3.42;;;3.13;;
71773;SDS011;59607;52.130;5.430;2024-02-26T12:25:59;4.03;;;3.63;;
71773;SDS011;59607;52.130;5.430;2024-02-26T12:28:46;3.23;;;2.50;;
71773;SDS011;59607;52.130;5.430;2024-02-26T12:31:16;5.68;;;3.15;;
71773;SDS011;59607;52.130;5.430;2024-02-26T12:33:42;5.75;;;3.00;;
71773;SDS011;59607;52.130;5.430;2024-02-26T12:36:18;3.50;;;2.83;;
71773;SDS011;59607;52.130;5.430;2024-02-26T12:38:45;3.20;;;2.90;;
71773;SDS011;59607;52.130;5.430;2024-02-26T12:41:22;3.63;;;2.50;;
71773;SDS011;59607;52.130;5.430;2024-02-26T12:43:49;5.10;;;2.78;;
71773;SDS011;59607;52.130;5.430;2024-02-26T12:46:21;3.05;;;2.58;;
71773;SDS011;59607;52.130;5.430;2024-02-26T12:48:48;2.88;;;2.55;;
71773;SDS011;59607;52.130;5.430;2024-02-26T12:51:17;3.38;;;3.08;;
71773;SDS011;59607;52.130;5.430;2024-02-26T12:53:48;3.97;;;2.83;;
71773;SDS011;59607;52.130;5.430;2024-02-26T12:56:21;2.97;;;2.55;;
71773;SDS011;59607;52.130;5.430;2024-02-26T12:58:52;4.55;;;2.80;;
71773;SDS011;59607;52.130;5.430;2024-02-26T13:01:20;3.72;;;2.72;;
71773;SDS011;59607;52.130;5.430;2024-02-26T13:03:57;3.50;;;2.45;;
71773;SDS011;59607;52.130;5.430;2024-02-26T13:06:32;6.03;;;2.40;;
71773;SDS011;59607;52.130;5.430;2024-02-26T13:09:00;2.97;;;2.42;;
71773;SDS011;59607;52.130;5.430;2024-02-26T13:11:34;3.25;;;2.47;;
71773;SDS011;59607;52.130;5.430;2024-02-26T13:14:00;3.40;;;2.95;;
71773;SDS011;59607;52.130;5.430;2024-02-26T13:16:36;3.00;;;2.70;;
71773;SDS011;59607;52.130;5.430;2024-02-26T13:19:12;5.80;;;2.87;;
71773;SDS011;59607;52.130;5.430;2024-02-26T13:21:39;3.03;;;2.60;;
71773;SDS011;59607;52.130;5.430;2024-02-26T13:24:05;3.17;;;2.88;;
71773;SDS011;59607;52.130;5.430;2024-02-26T13:26:35;5.35;;;2.65;;
71773;SDS011;59607;52.130;5.430;2024-02-26T13:29:15;3.17;;;2.22;;
71773;SDS011;59607;52.130;5.430;2024-02-26T13:31:46;2.73;;;2.20;;
71773;SDS011;59607;52.130;5.430;2024-02-26T13:34:28;3.90;;;3.13;;
71773;SDS011;59607;52.130;5.430;2024-02-26T13:36:58;2.53;;;1.50;;
71773;SDS011;59607;52.130;5.430;2024-02-26T13:39:30;3.13;;;2.72;;
71773;SDS011;59607;52.130;5.430;2024-02-26T13:41:57;5.15;;;3.20;;
71773;SDS011;59607;52.130;5.430;2024-02-26T13:44:24;3.37;;;2.60;;
71773;SDS011;59607;52.130;5.430;2024-02-26T13:46:50;3.70;;;2.15;;
71773;SDS011;59607;52.130;5.430;2024-02-26T13:49:20;2.40;;;1.85;;
71773;SDS011;59607;52.130;5.430;2024-02-26T13:51:47;2.40;;;2.13;;
71773;SDS011;59607;52.130;5.430;2024-02-26T13:54:19;4.93;;;2.35;;
71773;SDS011;59607;52.130;5.430;2024-02-26T13:56:46;3.27;;;2.40;;
71773;SDS011;59607;52.130;5.430;2024-02-26T13:59:14;3.65;;;2.42;;
71773;SDS011;59607;52.130;5.430;2024-02-26T14:01:46;3.25;;;2.22;;
71773;SDS011;59607;52.130;5.430;2024-02-26T14:04:13;2.10;;;1.88;;
71773;SDS011;59607;52.130;5.430;2024-02-26T14:06:47;3.25;;;2.58;;
71773;SDS011;59607;52.130;5.430;2024-02-26T14:09:13;4.07;;;2.37;;
71773;SDS011;59607;52.130;5.430;2024-02-26T14:11:53;3.13;;;2.20;;
71773;SDS011;59607;52.130;5.430;2024-02-26T14:14:19;2.58;;;2.20;;
71773;SDS011;59607;52.130;5.430;2024-02-26T14:16:53;3.33;;;2.08;;
71773;SDS011;59607;52.130;5.430;2024-02-26T14:19:19;3.15;;;2.45;;
71773;SDS011;59607;52.130;5.430;2024-02-26T14:22:01;2.50;;;2.20;;
71773;SDS011;59607;52.130;5.430;2024-02-26T14:24:30;4.32;;;1.95;;
71773;SDS011;59607;52.130;5.430;2024-02-26T14:26:59;2.40;;;1.98;;
71773;SDS011;59607;52.130;5.430;2024-02-26T14:29:26;4.55;;;1.95;;
71773;SDS011;59607;52.130;5.430;2024-02-26T14:32:00;3.15;;;2.10;;
71773;SDS011;59607;52.130;5.430;2024-02-26T14:34:27;3.70;;;2.10;;
71773;SDS011;59607;52.130;5.430;2024-02-26T14:36:55;3.17;;;2.10;;
71773;SDS011;59607;52.130;5.430;2024-02-26T14:39:24;3.03;;;1.83;;
71773;SDS011;59607;52.130;5.430;2024-02-26T14:41:50;2.38;;;1.83;;
71773;SDS011;59607;52.130;5.430;2024-02-26T14:44:21;2.38;;;1.80;;
71773;SDS011;59607;52.130;5.430;2024-02-26T14:46:56;1.80;;;1.30;;
71773;SDS011;59607;52.130;5.430;2024-02-26T14:49:32;2.22;;;1.70;;
71773;SDS011;59607;52.130;5.430;2024-02-26T14:52:05;2.67;;;1.17;;
71773;SDS011;59607;52.130;5.430;2024-02-26T14:54:35;2.85;;;1.33;;
71773;SDS011;59607;52.130;5.430;2024-02-26T14:57:05;2.92;;;1.25;;
71773;SDS011;59607;52.130;5.430;2024-02-26T14:59:38;2.03;;;1.57;;
71773;SDS011;59607;52.130;5.430;2024-02-26T15:02:04;1.95;;;1.10;;
71773;SDS011;59607;52.130;5.430;2024-02-26T15:04:34;2.50;;;1.77;;
71773;SDS011;59607;52.130;5.430;2024-02-26T15:07:04;1.95;;;1.13;;
71773;SDS011;59607;52.130;5.430;2024-02-26T15:09:30;1.23;;;0.93;;